createdAt,value
2017-10-25T00:02:03.126Z,99.20
2017-10-25T00:04:31.528Z,99.20
2017-10-25T00:06:59.895Z,99.10
2017-10-25T00:09:28.280Z,99.20
2017-10-25T00:11:56.661Z,99.30
2017-10-25T00:14:25.018Z,99.30
2017-10-25T00:16:53.407Z,99.40
2017-10-25T00:19:22.196Z,99.40
2017-10-25T00:21:50.556Z,99.50
2017-10-25T00:24:18.939Z,99.60
2017-10-25T00:26:47.311Z,99.70
2017-10-25T00:29:15.899Z,99.80
2017-10-25T00:31:44.270Z,99.80
2017-10-25T00:34:12.647Z,99.80
2017-10-25T00:36:41.062Z,99.90
2017-10-25T00:39:09.426Z,99.90
2017-10-25T00:41:38.119Z,99.90
2017-10-25T00:44:06.498Z,99.90
2017-10-25T00:46:34.877Z,99.90
2017-10-25T00:49:03.260Z,99.90
2017-10-25T00:51:31.635Z,99.90
2017-10-25T00:54:00.297Z,99.90
2017-10-25T00:56:28.673Z,99.90
2017-10-25T00:58:57.044Z,99.90
2017-10-25T01:01:25.511Z,99.90
2017-10-25T01:03:53.867Z,99.90
2017-10-25T01:06:23.047Z,99.80
2017-10-25T01:08:51.424Z,99.80
2017-10-25T01:11:19.792Z,99.70
2017-10-25T01:13:48.799Z,99.60
2017-10-25T01:16:18.468Z,99.70
2017-10-25T01:18:47.064Z,99.70
2017-10-25T01:21:15.440Z,99.70
2017-10-25T01:23:43.842Z,99.70
2017-10-25T01:26:12.233Z,99.80
2017-10-25T01:28:40.598Z,99.80
2017-10-25T01:31:09.363Z,99.70
2017-10-25T01:33:39.172Z,99.50
2017-10-25T01:36:08.022Z,99.20
2017-10-25T01:38:37.880Z,99.30
2017-10-25T01:41:06.872Z,99.30
2017-10-25T01:43:36.200Z,99.40
2017-10-25T01:46:05.940Z,99.70
2017-10-25T01:48:35.678Z,99.90
2017-10-25T01:51:04.082Z,99.90
2017-10-25T01:53:32.458Z,99.90
2017-10-25T01:56:00.859Z,99.90
2017-10-25T01:58:29.226Z,99.90
2017-10-25T02:00:57.630Z,99.90
2017-10-25T02:03:26.770Z,99.90
2017-10-25T02:05:55.134Z,99.90
2017-10-25T02:08:23.563Z,99.90
2017-10-25T02:10:51.934Z,99.90
2017-10-25T02:13:20.797Z,99.90
2017-10-25T02:15:49.156Z,99.90
2017-10-25T02:18:17.520Z,99.90
2017-10-25T02:20:46.678Z,99.50
2017-10-25T02:23:15.043Z,99.50
2017-10-25T02:25:43.748Z,99.50
2017-10-25T02:28:12.158Z,99.50
2017-10-25T02:30:41.291Z,99.70
2017-10-25T02:33:09.681Z,99.70
2017-10-25T02:35:38.050Z,99.70
2017-10-25T02:38:06.602Z,99.80
2017-10-25T02:40:34.973Z,99.80
2017-10-25T02:43:03.353Z,99.50
2017-10-25T02:45:32.517Z,99.30
2017-10-25T02:48:00.888Z,99.30
2017-10-25T02:50:29.314Z,99.40
2017-10-25T02:52:57.670Z,99.50
2017-10-25T02:55:26.802Z,99.80
2017-10-25T02:57:55.250Z,99.80
2017-10-25T03:00:24.386Z,99.90
2017-10-25T03:02:52.966Z,99.90
2017-10-25T03:05:21.354Z,99.90
2017-10-25T03:07:49.714Z,99.90
2017-10-25T03:10:18.103Z,99.80
2017-10-25T03:12:46.474Z,99.70
2017-10-25T03:15:15.171Z,99.60
2017-10-25T03:17:43.994Z,99.50
2017-10-25T03:20:12.362Z,99.30
2017-10-25T03:22:40.760Z,99.30
2017-10-25T03:25:09.129Z,99.20
2017-10-25T03:27:37.777Z,99.30
2017-10-25T03:30:06.194Z,99.00
2017-10-25T03:32:34.566Z,98.80
2017-10-25T03:35:02.965Z,98.80
2017-10-25T03:37:31.830Z,98.90
2017-10-25T03:40:00.499Z,99.20
2017-10-25T03:42:28.898Z,98.90
2017-10-25T03:44:57.264Z,98.90
2017-10-25T03:47:25.654Z,98.90
2017-10-25T03:49:54.020Z,98.30
2017-10-25T03:52:22.422Z,98.60
2017-10-25T03:54:50.790Z,98.70
2017-10-25T03:57:19.159Z,98.80
2017-10-25T03:59:47.547Z,99.00
2017-10-25T04:02:15.915Z,99.00
2017-10-25T04:04:44.484Z,98.90
2017-10-25T04:07:13.097Z,98.90
2017-10-25T04:09:41.475Z,98.80
2017-10-25T04:12:09.861Z,98.70
2017-10-25T04:14:38.224Z,98.80
2017-10-25T04:17:06.659Z,98.90
2017-10-25T04:19:35.018Z,98.60
2017-10-25T04:22:04.147Z,98.50
2017-10-25T04:24:32.538Z,98.50
2017-10-25T04:27:00.898Z,98.60
2017-10-25T04:29:29.486Z,98.60
2017-10-25T04:31:57.846Z,98.50
2017-10-25T04:34:26.215Z,98.10
2017-10-25T04:36:55.367Z,98.10
2017-10-25T04:39:23.743Z,98.10
2017-10-25T04:41:52.251Z,98.00
2017-10-25T04:44:20.625Z,97.70
2017-10-25T04:46:48.988Z,97.80
2017-10-25T04:49:17.388Z,98.00
2017-10-25T04:51:46.518Z,97.90
2017-10-25T04:54:14.942Z,97.90
2017-10-25T04:56:43.316Z,97.90
2017-10-25T04:59:11.690Z,98.20
2017-10-25T05:01:40.074Z,98.00
2017-10-25T05:04:08.451Z,98.10
2017-10-25T05:06:37.094Z,98.20
2017-10-25T05:09:05.468Z,97.60
2017-10-25T05:11:33.831Z,97.90
2017-10-25T05:14:03.005Z,98.00
2017-10-25T05:16:32.135Z,97.90
2017-10-25T05:19:00.736Z,97.90
2017-10-25T05:21:29.101Z,97.90
2017-10-25T05:23:57.463Z,97.90
2017-10-25T05:26:25.873Z,97.80
2017-10-25T05:28:54.229Z,97.90
2017-10-25T05:31:22.844Z,97.80
2017-10-25T05:33:51.211Z,97.60
2017-10-25T05:36:19.582Z,97.70
2017-10-25T05:38:47.966Z,97.80
2017-10-25T05:41:16.338Z,97.90
2017-10-25T05:43:44.939Z,97.80
2017-10-25T05:46:13.302Z,97.60
2017-10-25T05:48:41.701Z,97.50
2017-10-25T05:51:10.087Z,97.50
2017-10-25T05:53:38.466Z,97.40
2017-10-25T05:56:07.158Z,97.40
2017-10-25T05:58:35.523Z,97.50
2017-10-25T06:01:03.897Z,97.40
2017-10-25T06:03:32.289Z,97.40
2017-10-25T06:06:00.750Z,97.50
2017-10-25T06:08:29.328Z,97.40
2017-10-25T06:10:57.699Z,97.40
2017-10-25T06:13:26.070Z,97.40
2017-10-25T06:15:54.455Z,97.30
2017-10-25T06:18:23.680Z,97.40
2017-10-25T06:20:52.563Z,97.50
2017-10-25T06:23:20.943Z,97.20
2017-10-25T06:25:49.319Z,97.40
2017-10-25T06:28:17.702Z,97.10
2017-10-25T06:30:46.067Z,96.80
2017-10-25T06:33:14.676Z,96.60
2017-10-25T06:35:43.041Z,96.50
2017-10-25T06:38:11.427Z,96.30
2017-10-25T06:40:39.821Z,95.90
2017-10-25T06:43:08.202Z,96.20
2017-10-25T06:45:36.852Z,95.70
2017-10-25T06:48:05.227Z,95.20
2017-10-25T06:50:33.602Z,95.20
2017-10-25T06:53:02.013Z,94.50
2017-10-25T06:55:30.474Z,94.40
2017-10-25T06:57:59.160Z,94.50
2017-10-25T07:00:27.539Z,93.60
2017-10-25T07:02:55.922Z,93.80
2017-10-25T07:05:24.322Z,93.00
2017-10-25T07:07:52.692Z,92.20
2017-10-25T07:10:21.349Z,92.00
2017-10-25T07:12:49.728Z,92.10
2017-10-25T07:15:18.099Z,91.90
2017-10-25T07:17:46.494Z,91.60
2017-10-25T07:20:14.872Z,91.20
2017-10-25T07:22:43.406Z,91.00
2017-10-25T07:25:13.287Z,90.40
2017-10-25T07:27:41.663Z,90.40
2017-10-25T07:30:10.355Z,90.00
2017-10-25T07:32:38.738Z,88.10
2017-10-25T07:35:07.383Z,89.10
2017-10-25T07:37:35.778Z,88.90
2017-10-25T07:40:04.236Z,88.30
2017-10-25T07:42:33.473Z,87.50
2017-10-25T07:45:01.855Z,87.40
2017-10-25T07:47:30.509Z,85.00
2017-10-25T07:49:58.883Z,83.70
2017-10-25T07:52:27.259Z,82.20
2017-10-25T07:54:55.674Z,80.00
2017-10-25T07:57:24.043Z,80.80
2017-10-25T07:59:52.611Z,81.00
2017-10-25T08:02:20.985Z,80.80
2017-10-25T08:04:49.371Z,79.40
2017-10-25T08:07:17.768Z,78.90
2017-10-25T08:09:46.148Z,78.00
2017-10-25T08:12:14.813Z,77.50
2017-10-25T08:14:43.184Z,77.00
2017-10-25T08:17:11.563Z,77.70
2017-10-25T08:19:39.968Z,76.40
2017-10-25T08:22:08.354Z,73.70
2017-10-25T08:24:36.898Z,74.70
2017-10-25T08:27:05.295Z,74.40
2017-10-25T08:29:33.675Z,72.90
2017-10-25T08:32:02.090Z,71.60
2017-10-25T08:34:31.266Z,71.70
2017-10-25T08:36:59.817Z,71.70
2017-10-25T08:39:28.301Z,70.70
2017-10-25T08:41:56.689Z,70.10
2017-10-25T08:44:25.107Z,69.90
2017-10-25T08:46:53.488Z,67.90
2017-10-25T08:49:22.788Z,63.10
2017-10-25T08:51:51.937Z,61.10
2017-10-25T08:54:20.328Z,61.20
2017-10-25T08:56:48.743Z,61.10
2017-10-25T08:59:19.767Z,56.50
2017-10-25T09:01:48.413Z,56.50
2017-10-25T09:04:16.790Z,55.00
2017-10-25T09:06:45.174Z,55.80
2017-10-25T09:09:13.716Z,55.00
2017-10-25T09:11:42.867Z,54.20
2017-10-25T09:14:12.183Z,54.10
2017-10-25T09:16:40.584Z,54.70
2017-10-25T09:19:09.732Z,54.80
2017-10-25T09:21:38.297Z,54.70
2017-10-25T09:24:06.679Z,55.30
2017-10-25T09:26:35.057Z,56.50
2017-10-25T09:29:03.452Z,56.80
2017-10-25T09:31:31.835Z,58.10
2017-10-25T09:34:00.600Z,59.20
2017-10-25T09:36:28.975Z,61.10
2017-10-25T09:38:57.380Z,61.70
2017-10-25T09:41:25.775Z,64.10
2017-10-25T09:43:54.153Z,64.20
2017-10-25T09:46:22.799Z,64.60
2017-10-25T09:48:51.181Z,66.30
2017-10-25T09:51:19.563Z,66.90
2017-10-25T09:53:47.959Z,66.10
2017-10-25T09:56:16.651Z,62.90
2017-10-25T09:58:45.047Z,64.00
2017-10-25T10:01:14.191Z,62.70
2017-10-25T10:03:42.783Z,62.60
2017-10-25T10:06:11.167Z,65.10
2017-10-25T10:08:39.540Z,64.40
2017-10-25T10:11:07.946Z,65.80
2017-10-25T10:13:36.319Z,65.70
2017-10-25T10:16:04.883Z,63.50
2017-10-25T10:18:33.271Z,63.20
2017-10-25T10:21:01.653Z,63.00
2017-10-25T10:23:30.046Z,62.10
2017-10-25T10:25:58.431Z,62.30
2017-10-25T10:28:27.076Z,62.10
2017-10-25T10:30:55.475Z,64.00
2017-10-25T10:33:23.847Z,64.30
2017-10-25T10:35:52.265Z,64.90
2017-10-25T10:38:21.412Z,68.80
2017-10-25T10:40:50.705Z,68.90
2017-10-25T10:43:19.095Z,68.40
2017-10-25T10:45:47.479Z,68.70
2017-10-25T10:48:15.882Z,68.40
2017-10-25T10:50:44.385Z,67.60
2017-10-25T10:53:13.931Z,63.10
2017-10-25T10:55:42.308Z,63.10
2017-10-25T10:58:10.686Z,64.30
2017-10-25T11:00:39.089Z,65.60
2017-10-25T11:03:07.511Z,66.20
2017-10-25T11:05:36.951Z,65.40
2017-10-25T11:08:05.332Z,65.40
2017-10-25T11:10:33.712Z,63.80
2017-10-25T11:13:02.735Z,60.80
2017-10-25T11:15:31.123Z,61.90
2017-10-25T11:18:00.587Z,57.40
2017-10-25T11:20:28.970Z,57.60
2017-10-25T11:22:57.342Z,60.40
2017-10-25T11:25:25.753Z,61.80
2017-10-25T11:27:54.148Z,62.60
2017-10-25T11:30:23.323Z,63.90
2017-10-25T11:32:51.738Z,63.90
2017-10-25T11:35:20.895Z,63.50
2017-10-25T11:38:03.081Z,63.50
2017-10-25T11:40:31.463Z,64.60
2017-10-25T11:42:59.909Z,65.10
2017-10-25T11:45:28.295Z,65.60
2017-10-25T11:47:56.679Z,65.30
2017-10-25T11:50:25.079Z,63.10
2017-10-25T11:52:53.471Z,64.60
2017-10-25T11:55:22.027Z,64.30
2017-10-25T11:57:50.407Z,64.00
2017-10-25T12:00:18.798Z,65.70
2017-10-25T12:02:47.199Z,65.20
2017-10-25T12:05:15.588Z,65.60
2017-10-25T12:07:44.773Z,65.90
2017-10-25T12:10:13.912Z,64.30
2017-10-25T12:12:42.289Z,64.30
2017-10-25T12:15:10.688Z,62.20
2017-10-25T12:17:39.062Z,61.20
2017-10-25T12:20:07.477Z,60.00
2017-10-25T12:22:35.856Z,61.90
2017-10-25T12:25:04.243Z,60.60
2017-10-25T12:27:34.187Z,60.80
2017-10-25T12:30:02.573Z,60.80
2017-10-25T12:32:31.325Z,60.90
2017-10-25T12:34:59.734Z,61.30
2017-10-25T12:37:28.108Z,62.50
2017-10-25T12:39:56.514Z,61.60
2017-10-25T12:42:24.895Z,62.80
2017-10-25T12:44:53.484Z,63.40
2017-10-25T12:47:21.858Z,63.40
2017-10-25T12:49:50.236Z,62.60
2017-10-25T12:52:18.630Z,62.10
2017-10-25T12:54:47.010Z,62.50
2017-10-25T12:57:15.747Z,64.20
2017-10-25T12:59:44.898Z,63.00
2017-10-25T13:02:13.274Z,62.90
2017-10-25T13:04:41.671Z,64.40
2017-10-25T13:07:10.045Z,63.40
2017-10-25T13:09:38.479Z,64.90
2017-10-25T13:12:36.595Z,64.40
2017-10-25T13:15:21.188Z,63.80
2017-10-25T13:18:10.259Z,63.40
2017-10-25T13:20:38.828Z,63.70
2017-10-25T13:23:07.980Z,63.20
2017-10-25T13:25:36.356Z,63.20
2017-10-25T13:28:04.762Z,62.80
2017-10-25T13:30:33.146Z,61.90
2017-10-25T13:33:02.511Z,63.90
2017-10-25T13:35:30.893Z,63.20
2017-10-25T13:37:59.286Z,63.70
2017-10-25T13:40:27.690Z,63.50
2017-10-25T13:42:56.834Z,64.80
2017-10-25T13:45:25.251Z,64.80
2017-10-25T13:47:53.627Z,65.00
2017-10-25T13:50:22.011Z,66.00
2017-10-25T13:52:50.410Z,67.80
2017-10-25T13:55:19.551Z,68.90
2017-10-25T13:57:48.145Z,68.70
2017-10-25T14:00:16.619Z,69.70
2017-10-25T14:02:45.013Z,70.90
2017-10-25T14:05:13.438Z,72.50
2017-10-25T14:07:41.815Z,72.30
2017-10-25T14:10:11.253Z,73.40
2017-10-25T14:12:39.631Z,73.40
2017-10-25T14:15:08.013Z,74.10
2017-10-25T14:17:36.446Z,73.20
2017-10-25T14:20:04.872Z,73.30
2017-10-25T14:22:33.314Z,74.00
2017-10-25T14:25:01.706Z,73.90
2017-10-25T14:30:52.266Z,73.50
2017-10-25T14:33:20.925Z,73.60
2017-10-25T14:35:49.306Z,74.90
2017-10-25T14:38:17.694Z,74.30
2017-10-25T14:40:46.108Z,74.00
2017-10-25T14:43:14.496Z,74.20
2017-10-25T14:45:43.841Z,74.80
2017-10-25T14:48:12.224Z,74.80
2017-10-25T14:50:40.600Z,75.10
2017-10-25T14:53:09.004Z,75.00
2017-10-25T14:55:40.854Z,75.60
2017-10-25T14:58:10.352Z,76.40
2017-10-25T15:00:38.733Z,76.40
2017-10-25T15:03:07.117Z,76.90
2017-10-25T15:05:35.526Z,76.20
2017-10-25T15:08:04.671Z,77.40
2017-10-25T15:10:33.259Z,77.40
2017-10-25T15:13:01.653Z,77.20
2017-10-25T15:15:30.101Z,77.40
2017-10-25T15:17:58.617Z,78.00
2017-10-25T15:20:26.995Z,77.20
2017-10-25T15:22:55.382Z,77.00
2017-10-25T15:25:23.889Z,77.00
2017-10-25T15:27:53.035Z,77.10
2017-10-25T15:30:21.464Z,77.20
2017-10-25T15:32:50.615Z,77.60
2017-10-25T15:35:19.013Z,77.70
2017-10-25T15:37:47.414Z,78.20
2017-10-25T15:40:16.567Z,79.10
2017-10-25T15:42:45.124Z,79.10
2017-10-25T15:45:13.506Z,79.50
2017-10-25T15:47:41.883Z,79.90
2017-10-25T15:50:10.273Z,80.70
2017-10-25T15:52:38.652Z,81.60
2017-10-25T15:55:07.351Z,82.40
2017-10-25T15:57:35.728Z,83.00
2017-10-25T16:00:04.115Z,83.60
2017-10-25T16:02:32.515Z,84.00
2017-10-25T16:05:01.666Z,84.90
2017-10-25T16:07:30.264Z,84.90
2017-10-25T16:09:58.647Z,85.50
2017-10-25T16:12:27.059Z,85.90
2017-10-25T16:14:55.455Z,86.60
2017-10-25T16:17:24.595Z,87.60
2017-10-25T16:19:53.176Z,87.60
2017-10-25T16:22:21.564Z,88.10
2017-10-25T16:24:49.934Z,88.60
2017-10-25T16:27:18.327Z,89.10
2017-10-25T16:29:46.705Z,89.60
2017-10-25T16:32:15.390Z,89.80
2017-10-25T16:34:43.767Z,90.10
2017-10-25T16:37:12.148Z,90.30
2017-10-25T16:39:40.547Z,90.60
2017-10-25T16:42:08.919Z,90.80
2017-10-25T16:44:37.523Z,90.80
2017-10-25T16:47:06.663Z,91.00
2017-10-25T16:49:35.031Z,91.00
2017-10-25T16:52:03.436Z,91.10
2017-10-25T16:54:31.798Z,91.30
2017-10-25T16:57:00.393Z,91.30
2017-10-25T16:59:28.768Z,91.40
2017-10-25T17:01:57.224Z,91.50
2017-10-25T17:04:26.176Z,91.50
2017-10-25T17:06:55.807Z,91.60
2017-10-25T17:09:25.022Z,91.60
2017-10-25T17:11:53.916Z,91.60
2017-10-25T17:14:22.831Z,91.70
2017-10-25T17:16:52.438Z,92.20
2017-10-25T17:19:22.939Z,92.10
2017-10-25T17:21:51.609Z,92.00
2017-10-25T17:24:20.542Z,92.10
2017-10-25T17:26:49.352Z,92.10
2017-10-25T17:29:19.749Z,92.30
2017-10-25T17:31:48.128Z,92.30
2017-10-25T17:34:16.648Z,92.20
2017-10-25T17:36:45.403Z,92.50
2017-10-25T17:39:14.012Z,92.50
2017-10-25T17:41:43.271Z,92.40
2017-10-25T17:44:11.688Z,92.30
2017-10-25T17:46:40.446Z,92.40
2017-10-25T17:49:09.693Z,92.50
2017-10-25T17:51:39.235Z,92.50
2017-10-25T17:54:07.638Z,92.60
2017-10-25T17:56:36.090Z,92.70
2017-10-25T17:59:05.110Z,92.70
2017-10-25T18:01:35.472Z,92.60
2017-10-25T18:04:05.857Z,92.70
2017-10-25T18:06:34.704Z,92.70
2017-10-25T18:09:04.501Z,92.70
2017-10-25T18:11:44.736Z,92.80
2017-10-25T18:14:15.937Z,92.80
2017-10-25T18:16:45.167Z,92.90
2017-10-25T18:19:13.548Z,92.80
2017-10-25T18:21:42.048Z,92.90
2017-10-25T18:24:10.934Z,93.00
2017-10-25T18:26:41.166Z,93.10
2017-10-25T18:29:17.631Z,93.30
2017-10-25T18:31:48.992Z,93.70
2017-10-25T18:34:17.790Z,93.50
2017-10-25T18:36:46.199Z,93.50
2017-10-25T18:39:14.749Z,93.70
2017-10-25T18:41:43.475Z,93.70
2017-10-25T18:44:11.859Z,93.70
2017-10-25T18:46:40.528Z,93.90
2017-10-25T18:49:10.343Z,93.90
2017-10-25T18:51:38.728Z,94.10
2017-10-25T18:54:07.315Z,94.10
2017-10-25T18:56:35.891Z,94.20
2017-10-25T18:59:04.279Z,94.30
2017-10-25T19:01:32.690Z,94.40
2017-10-25T19:04:01.897Z,94.50
2017-10-25T19:06:31.219Z,94.70
2017-10-25T19:09:00.679Z,94.70
2017-10-25T19:11:29.236Z,94.70
2017-10-25T19:13:58.463Z,95.00
2017-10-25T19:16:26.856Z,95.00
2017-10-25T19:18:55.245Z,95.10
2017-10-25T19:21:24.479Z,95.50
2017-10-25T19:23:53.254Z,95.50
2017-10-25T19:26:21.918Z,95.70
2017-10-25T19:28:51.225Z,96.00
2017-10-25T19:31:19.611Z,96.00
2017-10-25T19:33:48.027Z,96.20
2017-10-25T19:36:16.397Z,96.40
2017-10-25T19:38:45.080Z,96.60
2017-10-25T19:41:13.846Z,96.70
2017-10-25T19:43:42.459Z,96.90
2017-10-25T19:46:12.281Z,96.90
2017-10-25T19:48:40.901Z,97.00
2017-10-25T19:51:10.162Z,97.10
2017-10-25T19:53:38.539Z,97.10
2017-10-25T19:56:06.922Z,97.20
2017-10-25T19:58:35.361Z,97.30
2017-10-25T20:01:03.753Z,97.60
2017-10-25T20:03:32.171Z,97.70
2017-10-25T20:06:01.116Z,97.70
2017-10-25T20:08:29.703Z,97.80
2017-10-25T20:10:58.099Z,97.60
2017-10-25T20:13:26.481Z,97.80
2017-10-25T20:15:54.872Z,97.90
2017-10-25T20:18:23.254Z,97.90
2017-10-25T20:20:51.928Z,97.70
2017-10-25T20:23:20.311Z,97.90
2017-10-25T20:25:48.684Z,97.90
2017-10-25T20:28:17.090Z,97.80
2017-10-25T20:30:45.476Z,97.80
2017-10-25T20:33:14.759Z,98.00
2017-10-25T20:35:43.154Z,98.00
2017-10-25T20:38:11.528Z,98.00
2017-10-25T20:40:39.931Z,97.90
2017-10-25T20:43:09.104Z,98.30
2017-10-25T20:45:37.747Z,97.90
2017-10-25T20:48:06.117Z,97.90
2017-10-25T20:50:34.548Z,97.70
2017-10-25T20:53:02.947Z,97.70
2017-10-25T20:55:32.087Z,97.70
2017-10-25T20:58:01.483Z,97.70
2017-10-25T21:00:29.865Z,97.70
2017-10-25T21:02:58.417Z,97.80
2017-10-25T21:05:26.822Z,97.90
2017-10-25T21:07:55.204Z,98.00
2017-10-25T21:10:23.839Z,97.90
2017-10-25T21:12:52.992Z,97.90
2017-10-25T21:15:21.376Z,97.90
2017-10-25T21:17:49.781Z,97.90
2017-10-25T21:20:18.932Z,98.20
2017-10-25T21:22:47.516Z,98.00
2017-10-25T21:25:15.891Z,98.10
2017-10-25T21:27:44.262Z,97.80
2017-10-25T21:30:12.672Z,97.90
2017-10-25T21:32:43.482Z,97.90
2017-10-25T21:35:12.966Z,97.90
2017-10-25T21:37:57.587Z,98.20
2017-10-25T21:40:38.113Z,98.20
2017-10-25T21:43:32.950Z,98.10
2017-10-25T21:46:06.929Z,98.30
2017-10-25T21:48:49.186Z,98.40
2017-10-25T21:51:38.581Z,98.40
2017-10-25T21:54:23.791Z,98.50
2017-10-25T21:57:10.197Z,98.60
2017-10-25T21:59:59.672Z,98.70
2017-10-25T22:02:50.730Z,98.50
2017-10-25T22:05:33.095Z,98.60
2017-10-25T22:08:16.985Z,98.70
2017-10-25T22:11:04.842Z,98.70
2017-10-25T22:13:55.450Z,98.70
2017-10-25T22:16:31.703Z,98.70
2017-10-25T22:19:13.380Z,99.10
2017-10-25T22:21:55.836Z,98.90
2017-10-25T22:24:34.487Z,99.00
2017-10-25T22:27:19.263Z,99.30
2017-10-25T22:30:10.354Z,99.40
2017-10-25T22:32:53.147Z,99.60
2017-10-25T22:35:22.822Z,99.60
2017-10-25T22:38:04.751Z,99.80
2017-10-25T22:40:55.736Z,99.90
2017-10-25T22:43:26.806Z,99.90
2017-10-25T22:46:10.779Z,99.90
2017-10-25T22:49:00.911Z,99.80
2017-10-25T22:51:55.289Z,99.80
2017-10-25T22:54:49.346Z,99.70
2017-10-25T22:57:33.881Z,99.70
2017-10-25T23:00:12.781Z,99.90
2017-10-25T23:02:59.206Z,99.90
2017-10-25T23:05:31.981Z,99.90
2017-10-25T23:08:16.867Z,99.90
2017-10-25T23:11:05.914Z,99.90
2017-10-25T23:14:00.418Z,99.90
2017-10-25T23:16:54.676Z,99.90
2017-10-25T23:19:50.357Z,99.90
2017-10-25T23:22:45.036Z,99.90
2017-10-25T23:25:24.606Z,99.90
2017-10-25T23:28:01.270Z,99.90
2017-10-25T23:30:46.237Z,99.90
2017-10-25T23:33:37.297Z,99.90
2017-10-25T23:36:19.376Z,99.90
2017-10-25T23:39:08.825Z,99.90
2017-10-25T23:42:03.699Z,99.90
2017-10-25T23:47:38.028Z,99.90
2017-10-25T23:50:23.817Z,99.90
2017-10-25T23:53:15.278Z,99.90
2017-10-25T23:56:10.368Z,99.90
2017-10-25T23:58:50.714Z,99.90
